createdAt,value
2024-03-14T00:01:35.078Z,48.14
2024-03-14T00:04:05.164Z,47.37
2024-03-14T00:06:32.928Z,47.00
2024-03-14T00:09:02.450Z,46.72
2024-03-14T00:11:34.084Z,47.23
2024-03-14T00:14:02.145Z,46.99
2024-03-14T00:16:29.832Z,47.98
2024-03-14T00:19:01.267Z,47.52
2024-03-14T00:21:29.165Z,47.47
2024-03-14T00:23:58.192Z,47.76
2024-03-14T00:26:25.928Z,47.56
2024-03-14T00:28:53.999Z,48.99
2024-03-14T00:31:21.622Z,49.74
2024-03-14T00:33:49.413Z,47.97
2024-03-14T00:36:17.564Z,48.12
2024-03-14T00:38:45.756Z,48.50
2024-03-14T00:41:16.940Z,47.77
2024-03-14T00:43:44.854Z,47.51
2024-03-14T00:46:13.202Z,47.63
2024-03-14T00:48:41.634Z,47.30
2024-03-14T00:51:11.197Z,47.76
2024-03-14T00:53:39.008Z,47.37
2024-03-14T00:56:06.689Z,47.21
2024-03-14T00:58:34.402Z,47.38
2024-03-14T01:01:02.818Z,47.80
2024-03-14T01:03:32.119Z,47.62
2024-03-14T01:06:00.361Z,47.89
2024-03-14T01:08:30.516Z,48.45
2024-03-14T01:10:58.227Z,47.72
2024-03-14T01:13:27.183Z,48.64
2024-03-14T01:15:55.092Z,48.22
2024-03-14T01:18:23.487Z,48.01
2024-03-14T01:20:51.591Z,48.12
2024-03-14T01:23:19.669Z,47.34
2024-03-14T01:25:47.584Z,47.30
2024-03-14T01:28:15.511Z,47.52
2024-03-14T01:30:43.817Z,49.93
2024-03-14T01:33:11.689Z,47.14
2024-03-14T01:35:40.186Z,47.17
2024-03-14T01:38:08.391Z,46.99
2024-03-14T01:40:36.997Z,47.54
2024-03-14T01:43:05.455Z,48.20
2024-03-14T01:45:34.052Z,46.98
2024-03-14T01:48:02.095Z,48.04
2024-03-14T01:50:30.035Z,47.74
2024-03-14T01:52:59.318Z,47.14
2024-03-14T01:55:28.433Z,47.45
2024-03-14T01:57:55.998Z,48.29
2024-03-14T02:00:31.137Z,48.80
2024-03-14T02:02:58.935Z,47.31
2024-03-14T02:05:33.690Z,48.89
2024-03-14T02:08:01.595Z,48.27
2024-03-14T02:10:29.942Z,48.05
2024-03-14T02:12:58.111Z,48.01
2024-03-14T02:15:25.965Z,48.62
2024-03-14T02:17:54.229Z,47.38
2024-03-14T02:20:22.739Z,48.21
2024-03-14T02:22:50.711Z,48.58
2024-03-14T02:25:19.329Z,47.55
2024-03-14T02:27:47.320Z,48.31
2024-03-14T02:30:14.924Z,48.55
2024-03-14T02:32:42.395Z,49.01
2024-03-14T02:35:10.925Z,47.87
2024-03-14T02:37:38.760Z,48.61
2024-03-14T02:40:07.889Z,47.86
2024-03-14T02:42:37.087Z,48.72
2024-03-14T02:45:09.488Z,48.89
2024-03-14T02:47:38.662Z,48.25
2024-03-14T02:50:10.475Z,49.54
2024-03-14T02:52:39.677Z,49.08
2024-03-14T02:55:09.070Z,47.73
2024-03-14T02:57:38.003Z,47.60
2024-03-14T03:00:12.522Z,51.34
2024-03-14T03:02:42.923Z,49.73
2024-03-14T03:05:11.746Z,47.99
2024-03-14T03:07:39.596Z,48.15
2024-03-14T03:10:08.294Z,48.95
2024-03-14T03:12:41.594Z,49.11
2024-03-14T03:15:12.559Z,48.28
2024-03-14T03:17:40.976Z,49.70
2024-03-14T03:20:13.205Z,49.37
2024-03-14T03:22:59.713Z,50.23
2024-03-14T03:25:27.535Z,49.46
2024-03-14T03:27:55.283Z,49.19
2024-03-14T03:30:23.543Z,48.99
2024-03-14T03:32:52.221Z,49.90
2024-03-14T03:35:24.975Z,48.42
2024-03-14T03:37:56.550Z,48.57
2024-03-14T03:40:24.785Z,49.84
2024-03-14T03:42:55.137Z,49.90
2024-03-14T03:45:23.735Z,49.38
2024-03-14T03:47:52.292Z,49.68
2024-03-14T03:50:19.980Z,48.90
2024-03-14T03:52:47.843Z,50.37
2024-03-14T03:55:18.630Z,49.40
2024-03-14T03:57:47.939Z,49.07
2024-03-14T04:00:38.104Z,49.02
2024-03-14T04:03:13.398Z,49.57
2024-03-14T04:05:41.289Z,49.20
2024-03-14T04:08:09.228Z,48.71
2024-03-14T04:10:37.678Z,48.72
2024-03-14T04:13:08.054Z,48.67
2024-03-14T04:15:36.315Z,48.47
2024-03-14T04:18:07.390Z,48.75
2024-03-14T04:20:39.732Z,47.86
2024-03-14T04:23:08.487Z,48.14
2024-03-14T04:25:36.155Z,51.08
2024-03-14T04:28:03.930Z,48.18
2024-03-14T04:30:31.615Z,48.20
2024-03-14T04:32:59.461Z,47.47
2024-03-14T04:35:27.250Z,48.40
2024-03-14T04:37:55.220Z,47.99
2024-03-14T04:40:23.650Z,48.03
2024-03-14T04:42:54.868Z,47.49
2024-03-14T04:45:23.470Z,47.63
2024-03-14T04:47:52.775Z,47.88
2024-03-14T04:50:20.741Z,47.21
2024-03-14T04:52:56.240Z,47.39
2024-03-14T04:55:25.015Z,46.91
2024-03-14T04:57:53.162Z,46.68
2024-03-14T05:00:21.410Z,46.29
2024-03-14T05:02:51.766Z,46.06
2024-03-14T05:05:20.127Z,46.08
2024-03-14T05:07:49.494Z,45.63
2024-03-14T05:10:21.506Z,45.75
2024-03-14T05:12:50.245Z,45.22
2024-03-14T05:15:18.494Z,44.87
2024-03-14T05:17:47.380Z,45.12
2024-03-14T05:20:17.330Z,44.18
2024-03-14T05:22:45.997Z,44.45
2024-03-14T05:25:15.189Z,44.55
2024-03-14T05:27:46.709Z,44.26
2024-03-14T05:30:15.333Z,43.95
2024-03-14T05:32:43.372Z,44.14
2024-03-14T05:35:11.845Z,44.34
2024-03-14T05:37:39.709Z,44.48
2024-03-14T05:40:11.887Z,44.01
2024-03-14T05:42:40.932Z,43.77
2024-03-14T05:45:10.821Z,43.61
2024-03-14T05:47:41.131Z,43.71
2024-03-14T05:50:11.911Z,43.21
2024-03-14T05:52:43.382Z,43.55
2024-03-14T05:55:11.972Z,43.51
2024-03-14T05:57:41.193Z,43.94
2024-03-14T06:00:13.992Z,43.95
2024-03-14T06:02:42.931Z,43.14
2024-03-14T06:05:11.832Z,43.61
2024-03-14T06:07:40.158Z,43.83
2024-03-14T06:10:08.623Z,42.89
2024-03-14T06:12:38.808Z,42.37
2024-03-14T06:15:08.723Z,42.87
2024-03-14T06:17:36.673Z,41.63
2024-03-14T06:20:09.076Z,43.03
2024-03-14T06:22:41.190Z,41.21
2024-03-14T06:25:09.015Z,43.17
2024-03-14T06:27:36.999Z,41.85
2024-03-14T06:30:13.615Z,41.95
2024-03-14T06:32:47.999Z,40.83
2024-03-14T06:35:16.854Z,41.11
2024-03-14T06:37:44.570Z,41.62
2024-03-14T06:40:15.725Z,41.12
2024-03-14T06:42:43.883Z,39.95
2024-03-14T06:45:12.295Z,40.44
2024-03-14T06:47:42.307Z,40.78
2024-03-14T06:50:11.681Z,41.01
2024-03-14T06:52:39.643Z,40.87
2024-03-14T06:55:11.843Z,41.12
2024-03-14T06:57:41.746Z,40.24
2024-03-14T07:00:14.340Z,40.53
2024-03-14T07:02:42.360Z,40.61
2024-03-14T07:05:10.819Z,40.44
2024-03-14T07:07:38.571Z,40.42
2024-03-14T07:10:10.093Z,39.57
2024-03-14T07:12:38.054Z,39.86
2024-03-14T07:15:07.506Z,38.74
2024-03-14T07:17:36.489Z,38.70
2024-03-14T07:20:26.470Z,39.17
2024-03-14T07:22:54.926Z,38.83
2024-03-14T07:25:22.779Z,38.66
2024-03-14T07:27:50.330Z,38.72
2024-03-14T07:30:19.296Z,38.56
2024-03-14T07:32:48.665Z,39.02
2024-03-14T07:35:17.044Z,37.40
2024-03-14T07:37:51.398Z,37.99
2024-03-14T07:40:19.935Z,38.07
2024-03-14T07:42:48.037Z,37.87
2024-03-14T07:45:19.745Z,37.31
2024-03-14T07:47:54.477Z,37.13
2024-03-14T07:50:24.808Z,37.60
2024-03-14T07:52:53.179Z,37.58
2024-03-14T07:55:20.954Z,37.33
2024-03-14T07:57:48.699Z,37.26
2024-03-14T08:00:17.337Z,36.37
2024-03-14T08:02:57.365Z,36.44
2024-03-14T08:05:27.393Z,37.57
2024-03-14T08:08:05.491Z,37.48
2024-03-14T08:10:48.184Z,36.75
2024-03-14T08:13:23.475Z,36.84
2024-03-14T08:15:56.131Z,36.28
2024-03-14T08:18:25.289Z,35.85
2024-03-14T08:20:58.099Z,36.92
2024-03-14T08:23:28.228Z,36.62
2024-03-14T08:25:57.862Z,33.82
2024-03-14T08:28:25.596Z,35.46
2024-03-14T08:30:53.935Z,35.12
2024-03-14T08:33:25.458Z,35.93
2024-03-14T08:35:55.531Z,35.25
2024-03-14T08:38:23.722Z,36.24
2024-03-14T08:40:51.824Z,37.05
2024-03-14T08:43:19.133Z,34.04
2024-03-14T08:45:47.508Z,34.52
2024-03-14T08:48:15.536Z,33.96
2024-03-14T08:50:43.309Z,35.79
2024-03-14T08:53:11.567Z,35.99
2024-03-14T08:55:47.005Z,35.60
2024-03-14T08:58:14.528Z,36.18
2024-03-14T09:00:42.268Z,35.62
2024-03-14T09:03:10.300Z,35.68
2024-03-14T09:05:39.039Z,34.98
2024-03-14T09:08:07.119Z,34.97
2024-03-14T09:10:35.234Z,32.49
2024-03-14T09:13:03.320Z,34.95
2024-03-14T09:15:31.861Z,34.82
2024-03-14T09:18:01.766Z,35.07
2024-03-14T09:20:29.913Z,35.06
2024-03-14T09:22:58.037Z,34.71
2024-03-14T09:25:30.382Z,34.32
2024-03-14T09:28:01.106Z,33.15
2024-03-14T09:30:29.722Z,34.85
2024-03-14T09:32:57.552Z,34.04
2024-03-14T09:35:29.180Z,32.44
2024-03-14T09:37:57.537Z,34.32
2024-03-14T09:40:25.761Z,34.72
2024-03-14T09:42:58.609Z,34.01
2024-03-14T09:45:32.197Z,34.31
2024-03-14T09:48:00.654Z,32.40
2024-03-14T09:50:29.401Z,33.76
2024-03-14T09:52:57.486Z,34.20
2024-03-14T09:55:25.969Z,33.03
2024-03-14T09:57:55.097Z,33.71
2024-03-14T10:00:26.409Z,34.19
2024-03-14T10:02:54.694Z,34.25
2024-03-14T10:05:23.277Z,32.29
2024-03-14T10:07:51.806Z,32.57
2024-03-14T10:10:20.870Z,33.29
2024-03-14T10:12:58.492Z,31.83
2024-03-14T10:15:28.610Z,33.50
2024-03-14T10:17:57.824Z,34.01
2024-03-14T10:20:26.181Z,33.81
2024-03-14T10:22:53.992Z,32.70
2024-03-14T10:25:37.127Z,33.21
2024-03-14T10:28:10.987Z,33.20
2024-03-14T10:30:50.385Z,31.07
2024-03-14T10:33:18.371Z,32.78
2024-03-14T10:35:47.700Z,33.47
2024-03-14T10:38:21.638Z,33.33
2024-03-14T10:40:50.351Z,32.66
2024-03-14T10:43:19.653Z,32.93
2024-03-14T10:45:54.260Z,33.59
2024-03-14T10:48:24.228Z,34.11
2024-03-14T10:50:56.008Z,33.33
2024-03-14T10:53:25.876Z,33.72
2024-03-14T10:55:56.575Z,33.04
2024-03-14T10:58:26.996Z,33.58
2024-03-14T11:00:57.154Z,33.40
2024-03-14T11:03:25.758Z,33.10
2024-03-14T11:05:57.056Z,33.02
2024-03-14T11:08:27.742Z,32.21
2024-03-14T11:10:58.057Z,32.21
2024-03-14T11:13:28.181Z,32.24
2024-03-14T11:16:00.670Z,32.96
2024-03-14T11:18:39.849Z,32.08
2024-03-14T11:21:13.816Z,33.23
2024-03-14T11:23:42.269Z,33.18
2024-03-14T11:26:16.753Z,32.40
2024-03-14T11:28:45.651Z,33.08
2024-03-14T11:31:14.931Z,33.18
2024-03-14T11:33:42.837Z,32.42
2024-03-14T11:36:12.814Z,30.35
2024-03-14T11:38:42.021Z,31.30
2024-03-14T11:41:15.613Z,31.94
2024-03-14T11:43:43.397Z,32.56
2024-03-14T11:46:15.713Z,31.32
2024-03-14T11:48:44.454Z,31.91
2024-03-14T11:51:12.905Z,31.03
2024-03-14T11:53:41.369Z,32.26
2024-03-14T11:56:12.466Z,30.36
2024-03-14T11:58:46.042Z,32.97
2024-03-14T12:01:21.610Z,31.96
2024-03-14T12:03:53.083Z,32.26
2024-03-14T12:06:21.732Z,28.90
2024-03-14T12:08:53.610Z,30.80
2024-03-14T12:11:22.232Z,29.43
2024-03-14T12:13:55.024Z,29.52
2024-03-14T12:16:23.640Z,28.65
2024-03-14T12:18:53.270Z,28.80
2024-03-14T12:21:21.544Z,27.83
2024-03-14T12:23:57.003Z,26.63
2024-03-14T12:26:25.287Z,28.60
2024-03-14T12:28:53.103Z,30.31
2024-03-14T12:31:21.265Z,29.33
2024-03-14T12:33:49.378Z,30.65
2024-03-14T12:36:20.416Z,30.59
2024-03-14T12:38:53.244Z,29.61
2024-03-14T12:41:21.482Z,30.50
2024-03-14T12:43:50.045Z,30.20
2024-03-14T12:46:20.914Z,30.32
2024-03-14T12:48:50.904Z,30.72
2024-03-14T12:51:25.871Z,30.22
2024-03-14T12:53:58.219Z,29.12
2024-03-14T12:56:27.113Z,31.87
2024-03-14T12:58:57.064Z,31.97
2024-03-14T13:01:33.516Z,30.97
2024-03-14T13:04:08.545Z,32.25
2024-03-14T13:06:37.802Z,32.09
2024-03-14T13:09:21.890Z,31.70
2024-03-14T13:12:21.117Z,30.73
2024-03-14T13:15:01.981Z,28.80
2024-03-14T13:17:33.789Z,30.51
2024-03-14T13:20:03.530Z,30.48
2024-03-14T13:22:31.858Z,30.79
2024-03-14T13:24:59.721Z,29.92
2024-03-14T13:27:27.188Z,29.91
2024-03-14T13:29:55.762Z,31.39
2024-03-14T13:32:23.653Z,32.29
2024-03-14T13:34:51.382Z,32.55
2024-03-14T13:37:19.603Z,32.19
2024-03-14T13:39:47.267Z,32.02
2024-03-14T13:42:17.612Z,32.45
2024-03-14T13:44:47.653Z,32.96
2024-03-14T13:47:24.094Z,32.71
2024-03-14T13:49:55.075Z,32.75
2024-03-14T13:52:23.443Z,31.69
2024-03-14T13:54:51.839Z,32.70
2024-03-14T13:57:21.043Z,31.81
2024-03-14T13:59:48.846Z,32.28
2024-03-14T14:02:18.882Z,33.11
2024-03-14T14:04:47.401Z,33.08
2024-03-14T14:07:15.062Z,32.72
2024-03-14T14:09:44.508Z,33.01
2024-03-14T14:12:12.759Z,32.69
2024-03-14T14:14:40.592Z,33.27
2024-03-14T14:17:09.629Z,33.42
2024-03-14T14:19:38.256Z,33.20
2024-03-14T14:22:09.878Z,33.58
2024-03-14T14:24:37.717Z,33.64
2024-03-14T14:27:05.209Z,34.04
2024-03-14T14:29:33.026Z,34.61
2024-03-14T14:32:01.345Z,34.39
2024-03-14T14:34:29.921Z,34.55
2024-03-14T14:36:58.532Z,34.12
2024-03-14T14:39:30.856Z,35.22
2024-03-14T14:42:00.624Z,34.78
2024-03-14T14:44:28.357Z,34.69
2024-03-14T14:46:55.984Z,34.64
2024-03-14T14:49:23.759Z,35.15
2024-03-14T14:51:51.349Z,35.00
2024-03-14T14:54:19.019Z,35.20
2024-03-14T14:56:46.558Z,34.69
2024-03-14T14:59:14.133Z,35.32
2024-03-14T15:01:41.927Z,35.85
2024-03-14T15:04:09.590Z,35.32
2024-03-14T15:06:37.565Z,35.22
2024-03-14T15:09:06.565Z,36.36
2024-03-14T15:11:35.118Z,35.31
2024-03-14T15:14:05.269Z,36.26
2024-03-14T15:16:33.379Z,35.86
2024-03-14T15:19:05.952Z,35.80
2024-03-14T15:21:34.469Z,36.10
2024-03-14T15:24:02.528Z,36.54
2024-03-14T15:26:30.753Z,36.58
2024-03-14T15:28:59.529Z,35.80
2024-03-14T15:31:27.965Z,35.99
2024-03-14T15:33:57.610Z,36.07
2024-03-14T15:36:28.107Z,35.83
2024-03-14T15:38:57.127Z,36.52
2024-03-14T15:41:25.390Z,37.16
2024-03-14T15:43:53.475Z,37.08
2024-03-14T15:46:23.974Z,37.71
2024-03-14T15:48:52.399Z,37.47
2024-03-14T15:51:21.305Z,37.63
2024-03-14T15:53:52.051Z,37.66
2024-03-14T15:56:19.814Z,38.38
2024-03-14T15:58:48.837Z,38.26
2024-03-14T16:01:17.241Z,38.32
2024-03-14T16:03:45.515Z,38.35
2024-03-14T16:06:13.234Z,40.92
2024-03-14T16:08:51.522Z,38.54
2024-03-14T16:11:23.435Z,39.18
2024-03-14T16:13:51.486Z,41.19
2024-03-14T16:16:19.112Z,39.19
2024-03-14T16:18:50.581Z,38.81
2024-03-14T16:21:19.512Z,38.95
2024-03-14T16:23:48.433Z,38.98
2024-03-14T16:26:20.339Z,39.23
2024-03-14T16:28:53.227Z,39.26
2024-03-14T16:31:23.816Z,39.36
2024-03-14T16:33:52.358Z,39.46
2024-03-14T16:36:22.861Z,40.02
2024-03-14T16:38:50.756Z,39.92
2024-03-14T16:41:18.638Z,40.21
2024-03-14T16:43:47.093Z,39.76
2024-03-14T16:46:17.246Z,40.16
2024-03-14T16:48:45.377Z,40.03
2024-03-14T16:51:14.007Z,39.87
2024-03-14T16:53:42.480Z,40.68
2024-03-14T16:56:13.935Z,41.37
2024-03-14T16:58:41.885Z,41.13
2024-03-14T17:01:10.873Z,40.99
2024-03-14T17:03:38.662Z,43.78
2024-03-14T17:06:06.820Z,40.84
2024-03-14T17:08:35.801Z,41.71
2024-03-14T17:11:04.576Z,44.36
2024-03-14T17:13:32.566Z,42.31
2024-03-14T17:16:02.415Z,42.41
2024-03-14T17:18:31.750Z,41.64
2024-03-14T17:21:01.825Z,42.01
2024-03-14T17:23:29.598Z,41.90
2024-03-14T17:25:57.510Z,41.93
2024-03-14T17:28:26.405Z,41.92
2024-03-14T17:30:55.798Z,42.41
2024-03-14T17:33:23.821Z,42.12
2024-03-14T17:35:52.487Z,42.61
2024-03-14T17:38:21.594Z,42.33
2024-03-14T17:40:49.425Z,43.19
2024-03-14T17:43:17.311Z,43.66
2024-03-14T17:45:44.958Z,42.87
2024-03-14T17:48:12.830Z,42.74
2024-03-14T17:50:41.534Z,43.36
2024-03-14T17:53:09.990Z,42.29
2024-03-14T17:55:38.307Z,42.82
2024-03-14T17:58:07.438Z,42.75
2024-03-14T18:00:35.200Z,42.54
2024-03-14T18:03:07.855Z,42.78
2024-03-14T18:05:37.341Z,42.72
2024-03-14T18:08:10.585Z,43.35
2024-03-14T18:10:38.620Z,44.26
2024-03-14T18:13:06.784Z,43.09
2024-03-14T18:15:34.480Z,43.02
2024-03-14T18:18:03.228Z,43.36
2024-03-14T18:20:32.393Z,43.30
2024-03-14T18:23:00.104Z,42.77
2024-03-14T18:25:27.777Z,43.16
2024-03-14T18:27:55.495Z,43.15
2024-03-14T18:30:24.262Z,42.65
2024-03-14T18:32:52.573Z,42.94
2024-03-14T18:35:24.757Z,44.56
2024-03-14T18:37:54.471Z,43.20
2024-03-14T18:40:31.781Z,43.34
2024-03-14T18:43:00.604Z,44.00
2024-03-14T18:45:29.192Z,42.96
2024-03-14T18:47:59.807Z,43.38
2024-03-14T18:50:27.878Z,43.35
2024-03-14T18:52:56.439Z,43.33
2024-03-14T18:55:24.895Z,43.60
2024-03-14T18:57:53.701Z,43.15
2024-03-14T19:00:27.398Z,43.22
2024-03-14T19:02:56.158Z,43.40
2024-03-14T19:05:28.885Z,43.79
2024-03-14T19:08:04.174Z,43.11
2024-03-14T19:10:34.591Z,42.83
2024-03-14T19:13:04.640Z,43.52
2024-03-14T19:15:33.455Z,43.43
2024-03-14T19:18:02.728Z,43.90
2024-03-14T19:20:30.820Z,44.07
2024-03-14T19:22:58.662Z,43.06
2024-03-14T19:25:26.825Z,45.97
2024-03-14T19:27:55.546Z,44.24
2024-03-14T19:30:25.634Z,43.82
2024-03-14T19:32:54.146Z,43.44
2024-03-14T19:35:21.942Z,44.19
2024-03-14T19:37:50.149Z,44.52
2024-03-14T19:40:18.181Z,43.77
2024-03-14T19:42:46.064Z,46.16
2024-03-14T19:45:14.178Z,44.26
2024-03-14T19:47:46.512Z,44.03
2024-03-14T19:50:14.922Z,44.19
2024-03-14T19:52:43.350Z,44.24
2024-03-14T19:55:11.246Z,44.20
2024-03-14T19:57:39.797Z,44.33
2024-03-14T20:00:12.105Z,44.60
2024-03-14T20:02:42.281Z,44.21
2024-03-14T20:05:10.969Z,44.23
2024-03-14T20:07:38.715Z,44.51
2024-03-14T20:10:07.083Z,44.89
2024-03-14T20:12:35.741Z,44.37
2024-03-14T20:15:04.315Z,45.00
2024-03-14T20:17:34.492Z,44.67
2024-03-14T20:20:12.557Z,45.23
2024-03-14T20:22:42.247Z,45.44
2024-03-14T20:25:14.248Z,44.80
2024-03-14T20:27:42.330Z,45.33
2024-03-14T20:30:14.280Z,45.09
2024-03-14T20:32:45.868Z,46.00
2024-03-14T20:35:17.032Z,45.45
2024-03-14T20:37:45.002Z,45.25
2024-03-14T20:40:15.991Z,45.77
2024-03-14T20:42:44.120Z,45.11
2024-03-14T20:45:15.313Z,45.16
2024-03-14T20:47:43.213Z,45.61
2024-03-14T20:50:13.242Z,44.87
2024-03-14T20:52:41.811Z,45.01
2024-03-14T20:58:08.989Z,45.09
2024-03-14T21:00:36.925Z,44.44
2024-03-14T21:03:04.913Z,44.40
2024-03-14T21:05:32.761Z,44.05
2024-03-14T21:08:05.918Z,43.97
2024-03-14T21:10:36.422Z,43.99
2024-03-14T21:13:09.408Z,44.04
2024-03-14T21:15:38.429Z,43.80
2024-03-14T21:18:12.884Z,43.63
2024-03-14T21:20:41.486Z,43.89
2024-03-14T21:23:09.161Z,43.92
2024-03-14T21:25:36.850Z,44.14
2024-03-14T21:28:04.672Z,44.21
2024-03-14T21:30:32.518Z,44.45
2024-03-14T21:33:00.884Z,44.62
2024-03-14T21:35:28.906Z,44.51
2024-03-14T21:37:57.199Z,47.60
2024-03-14T21:40:25.479Z,45.11
2024-03-14T21:42:53.803Z,45.31
2024-03-14T21:45:21.697Z,45.13
2024-03-14T21:47:49.985Z,45.89
2024-03-14T21:50:18.291Z,45.47
2024-03-14T21:52:46.746Z,45.95
2024-03-14T21:55:18.556Z,47.19
2024-03-14T21:57:49.025Z,46.15
2024-03-14T22:00:20.218Z,45.92
2024-03-14T22:02:51.004Z,45.78
2024-03-14T22:05:21.727Z,45.97
2024-03-14T22:07:49.602Z,45.51
2024-03-14T22:10:17.657Z,45.48
2024-03-14T22:12:46.528Z,45.26
2024-03-14T22:15:14.925Z,44.86
2024-03-14T22:17:46.035Z,44.83
2024-03-14T22:20:21.159Z,44.60
2024-03-14T22:22:50.496Z,44.62
2024-03-14T22:25:18.381Z,44.77
2024-03-14T22:27:46.472Z,45.87
2024-03-14T22:30:14.392Z,44.50
2024-03-14T22:32:42.297Z,44.69
2024-03-14T22:35:11.744Z,44.36
2024-03-14T22:37:39.500Z,44.37
2024-03-14T22:40:08.101Z,44.28
2024-03-14T22:42:36.443Z,44.85
2024-03-14T22:45:04.766Z,44.61
2024-03-14T22:47:33.732Z,44.77
2024-03-14T22:50:01.530Z,44.57
2024-03-14T22:52:30.885Z,45.05
2024-03-14T22:54:58.319Z,45.47
2024-03-14T22:57:25.979Z,45.00
2024-03-14T22:59:53.736Z,45.34
2024-03-14T23:02:22.222Z,45.10
2024-03-14T23:04:54.415Z,44.90
2024-03-14T23:07:22.871Z,44.80
2024-03-14T23:09:54.614Z,45.88
2024-03-14T23:12:22.367Z,46.00
2024-03-14T23:14:51.245Z,47.09
2024-03-14T23:17:19.436Z,46.58
2024-03-14T23:19:46.713Z,48.84
2024-03-14T23:22:15.364Z,46.88
2024-03-14T23:24:43.164Z,46.91
2024-03-14T23:27:10.896Z,46.80
2024-03-14T23:29:38.592Z,46.10
2024-03-14T23:32:06.593Z,45.79
2024-03-14T23:34:34.257Z,46.03
2024-03-14T23:37:02.025Z,46.34
2024-03-14T23:39:30.202Z,46.17
2024-03-14T23:41:58.751Z,46.21
2024-03-14T23:44:26.443Z,46.62
2024-03-14T23:46:54.380Z,48.42
2024-03-14T23:49:22.263Z,46.59
2024-03-14T23:51:49.851Z,49.64
2024-03-14T23:54:18.238Z,47.39
2024-03-14T23:56:46.134Z,46.90
2024-03-14T23:59:13.993Z,46.92
